Impacts METAR Board
IDs:

KMSP - Minneapolis-St Paul, MN, US

Updated at: 2200 UTC 19 Jan 2019
Potential Impact None Slight Moderate High
Time 19/10Z 19/11Z 19/12Z 19/13Z 19/14Z 19/15Z 19/16Z 19/17Z 19/18Z 19/19Z 19/20Z 19/21Z 19/22Z
Temp2 2 -0 -0 -1 -0 2 4 7 9 10 10 10
Dewpt-6 -6 -7 -7 -8 -8 -7 -6 -5 -3 -3 -4 -5
Altim30.36 30.37 30.38 30.39 30.40 30.40 30.39 30.38 30.37 30.35 30.34 30.33 30.32
VIS10 10 10 10 10 10 10 10 10 10 10 10 10
CIG-- -- -- -- -- -- -- -- -- -- -- -- --
CoverFEWCLRCLRCLRCLRCLRCLRCLRFEWFEWFEWFEWFEW
FltCatVFRVFRVFRVFRVFRVFRVFRVFRVFRVFRVFRVFRVFR
WX--------------------------
WDir2036036036010360360350340330330330330
WSpd9 10 10 9 6 10 9 9 8 9 8 8 10
WGst-- -- -- -- -- -- -- 20 20 -- -- 17 19
Raw hourly METARs
KMSP 190953Z 02009KT 10SM FEW070 M17/M21 A3036 RMK AO2 SLP304 T11671211
KMSP 191053Z 36010KT 10SM CLR M17/M21 A3037 RMK AO2 SLP305 T11671211
KMSP 191153Z 36010KT 10SM CLR M18/M22 A3038 RMK AO2 SLP309 70001 T11781217 11144 21178 55000
KMSP 191253Z 36009KT 10SM CLR M18/M22 A3039 RMK AO2 SLP314 T11781217
KMSP 191353Z 01006KT 10SM CLR M18/M22 A3040 RMK AO2 SLP317 T11831222
KMSP 191453Z 36010KT 10SM CLR M18/M22 A3040 RMK AO2 SLP316 T11781222 50006
KMSP 191553Z 36009KT 10SM CLR M17/M22 A3039 RMK AO2 SLP313 T11671217
KMSP 191653Z 35009G20KT 10SM CLR M16/M21 A3038 RMK AO2 SLP310 T11561211
KMSP 191753Z 34008G20KT 250V020 10SM FEW200 M14/M21 A3037 RMK AO2 SLP305 T11391206 11139 21183 58009
KMSP 191853Z 33009KT 10SM FEW200 M13/M19 A3035 RMK AO2 SLP299 T11281194
KMSP 191953Z 33008KT 10SM FEW200 M12/M19 A3034 RMK AO2 SLP296 T11221194
KMSP 192053Z 33008G17KT 10SM FEW200 M12/M20 A3033 RMK AO2 SLP290 T11221200 56015
KMSP 192153Z 33010G19KT 10SM FEW250 M12/M21 A3032 RMK AO2 SLP290 T11221206



Page loaded:  22:18 UTC  |   02:18 PM Pacific  |   03:18 PM Mountain  |   04:18 PM Central  |   05:18 PM Eastern

 

ADVISORIES

FORECASTS

FORECASTS

OBSERVATIONS

USER TOOLS

ABOUT US